createdAt,value
2022-09-16T00:00:52.837Z,73717.09
2022-09-16T00:11:05.152Z,73706.97
2022-09-16T00:21:10.845Z,73686.75
2022-09-16T00:31:16.674Z,73702.94
2022-09-16T00:41:25.066Z,73723.16
2022-09-16T00:51:31.466Z,73719.13
2022-09-16T01:01:37.092Z,73735.31
2022-09-16T01:11:42.714Z,73727.22
2022-09-16T01:22:39.801Z,73715.06
2022-09-16T01:32:49.767Z,73713.06
2022-09-16T01:43:16.828Z,73743.41
2022-09-16T01:53:30.306Z,73763.63
2022-09-16T02:03:41.074Z,73763.63
2022-09-16T02:13:48.897Z,73751.50
2022-09-16T02:23:58.285Z,73749.47
2022-09-16T02:34:12.209Z,73755.53
2022-09-16T02:44:14.405Z,73779.81
2022-09-16T02:54:47.531Z,73771.72
2022-09-16T03:04:53.248Z,73771.72
2022-09-16T03:15:36.441Z,73771.72
2022-09-16T03:26:02.815Z,73808.13
2022-09-16T03:36:07.581Z,73824.31
2022-09-16T03:46:18.556Z,73846.56
2022-09-16T03:56:23.780Z,73870.84
2022-09-16T04:06:25.868Z,73885.00
2022-09-16T04:16:34.413Z,73889.03
2022-09-16T04:26:36.747Z,73897.13
2022-09-16T04:36:39.922Z,73874.88
2022-09-16T04:46:43.483Z,73868.81
2022-09-16T04:56:47.212Z,73834.44
2022-09-16T05:06:51.734Z,73858.69
2022-09-16T05:16:58.409Z,73789.91
2022-09-16T05:27:00.545Z,73694.84
2022-09-16T05:37:02.644Z,73642.25
2022-09-16T05:47:07.801Z,73622.03
2022-09-16T05:57:17.907Z,73626.06
2022-09-16T06:07:21.131Z,73613.94
2022-09-16T06:17:30.167Z,73636.19
2022-09-16T06:27:35.251Z,73654.41
2022-09-16T06:37:43.001Z,73646.31
2022-09-16T06:47:52.598Z,73577.53
2022-09-16T06:57:59.684Z,73516.84
2022-09-16T07:08:05.398Z,73264.03
2022-09-16T07:18:10.751Z,73166.94
2022-09-16T07:28:13.506Z,73104.25
2022-09-16T07:38:17.855Z,73148.75
2022-09-16T07:48:32.521Z,73114.34
2022-09-16T07:58:44.789Z,73110.31
2022-09-16T08:08:47.989Z,73122.44
2022-09-16T08:18:55.563Z,73116.38
2022-09-16T08:29:09.775Z,73071.88
2022-09-16T08:39:18.340Z,73168.97
2022-09-16T08:49:36.641Z,73175.03
2022-09-16T08:59:42.050Z,73262.00
2022-09-16T09:10:36.269Z,73288.28
2022-09-16T09:21:00.355Z,73249.88
2022-09-16T09:31:29.519Z,73229.63
2022-09-16T09:41:39.641Z,73282.22
2022-09-16T09:51:50.101Z,73270.09
2022-09-16T10:01:56.015Z,73227.63
2022-09-16T10:12:03.761Z,73294.34
2022-09-16T10:22:12.322Z,73272.09
2022-09-16T10:32:19.624Z,73264.03
2022-09-16T10:42:26.058Z,73280.19
2022-09-16T10:52:30.299Z,73223.56
2022-09-16T11:02:32.720Z,73217.50
2022-09-16T11:12:48.711Z,73217.50
2022-09-16T11:23:11.244Z,73177.06
2022-09-16T11:33:22.454Z,73185.16
2022-09-16T11:43:33.453Z,73233.69
2022-09-16T11:53:58.883Z,73227.63
2022-09-16T12:04:17.687Z,73278.19
2022-09-16T12:14:50.348Z,73211.44
2022-09-16T12:25:15.542Z,73185.16
2022-09-16T12:35:27.243Z,73187.16
2022-09-16T12:46:11.298Z,73173.00
2022-09-16T12:56:26.520Z,73187.16
2022-09-16T13:06:38.280Z,73213.47
2022-09-16T13:16:51.912Z,73229.63
2022-09-16T13:26:59.068Z,73207.38
2022-09-16T13:37:02.317Z,73227.63
2022-09-16T13:47:10.427Z,73229.63
2022-09-16T13:57:26.379Z,73221.53
2022-09-16T14:07:47.136Z,73225.59
2022-09-16T14:17:53.483Z,73209.41
2022-09-16T14:28:18.587Z,73223.56
2022-09-16T14:38:44.338Z,73233.69
2022-09-16T14:48:47.046Z,73274.13
2022-09-16T14:58:53.281Z,73280.19
2022-09-16T15:09:08.503Z,73310.53
2022-09-16T15:19:21.561Z,73312.56
2022-09-16T15:29:24.643Z,73298.41
2022-09-16T15:39:39.100Z,73302.44
2022-09-16T15:49:43.929Z,73310.53
2022-09-16T15:59:57.573Z,73326.72
2022-09-16T16:10:17.655Z,73351.00
2022-09-16T16:20:22.963Z,73387.41
2022-09-16T16:30:27.188Z,73413.69
2022-09-16T16:40:31.533Z,73444.03
2022-09-16T16:50:34.463Z,73476.41
2022-09-16T17:00:44.723Z,73496.63
2022-09-16T17:10:48.126Z,73537.06
2022-09-16T17:20:50.878Z,73553.25
2022-09-16T17:30:56.647Z,73565.41
2022-09-16T17:41:15.334Z,73581.56
2022-09-16T17:51:18.143Z,73607.88
2022-09-16T18:01:22.266Z,73628.09
2022-09-16T18:11:24.754Z,73650.34
2022-09-16T18:21:30.484Z,73666.53
2022-09-16T18:31:35.065Z,73688.78
2022-09-16T18:41:41.751Z,73709.00
2022-09-16T18:51:52.118Z,73723.16
2022-09-16T19:01:57.193Z,73735.31
2022-09-16T19:12:01.239Z,73747.44
2022-09-16T19:22:08.575Z,73751.50
2022-09-16T19:32:13.067Z,73767.66
2022-09-16T19:42:15.124Z,73777.78
2022-09-16T19:52:19.335Z,73800.03
2022-09-16T20:02:26.375Z,73808.13
2022-09-16T20:12:28.574Z,73824.31
2022-09-16T20:22:30.746Z,73840.50
2022-09-16T20:32:33.314Z,73860.72
2022-09-16T20:42:35.340Z,73872.84
2022-09-16T20:52:41.549Z,73901.19
2022-09-16T21:02:46.322Z,73913.31
2022-09-16T21:12:51.294Z,73921.41
2022-09-16T21:22:56.780Z,73923.44
2022-09-16T21:32:59.050Z,73935.56
2022-09-16T21:43:01.110Z,73947.69
2022-09-16T21:53:05.852Z,73969.97
2022-09-16T22:03:10.390Z,73986.13
2022-09-16T22:13:12.529Z,73994.22
2022-09-16T22:23:17.137Z,73998.28
2022-09-16T22:33:21.661Z,74022.56
2022-09-16T22:43:23.719Z,74016.47
2022-09-16T22:53:26.395Z,74030.66
2022-09-16T23:03:33.273Z,74022.56
2022-09-16T23:13:36.199Z,74030.66
2022-09-16T23:23:41.215Z,74028.63
2022-09-16T23:33:45.840Z,74018.50
2022-09-16T23:43:48.989Z,74022.56
2022-09-16T23:53:54.280Z,74042.78
